Time;durP1;ratioP1;P1;durP2;ratioP2;P2;SDS_P1;SDS_P2;PMS_P1;PMS_P2;Temp;Humidity;BMP_temperature;BMP_pressure;BME280_temperature;BME280_humidity;BME280_pressure;Samples;Min_cycle;Max_cycle;Signal;HPM_P1;HPM_P2
2021/11/26 00:01:33;;;;;;;0.10;0.10;;;;;;;;;;5055179;28;20076;-88
2021/11/26 00:04:00;;;;;;;0.10;0.10;;;;;;;;;;5038506;28;20036;-87
2021/11/26 00:06:26;;;;;;;0.10;0.10;;;;;;;;;;5038688;28;20115;-88
2021/11/26 00:08:52;;;;;;;0.10;0.10;;;;;;;;;;5055135;28;20261;-88
2021/11/26 00:11:18;;;;;;;0.10;0.10;;;;;;;;;;5054673;28;20056;-87
2021/11/26 00:13:53;;;;;;;0.00;0.00;;;;;;;;;;5054976;28;20032;-87
2021/11/26 00:16:21;;;;;;;0.10;0.10;;;;;;;;;;5071545;28;20472;-88
2021/11/26 00:18:53;;;;;;;0.10;0.10;;;;;;;;;;5038261;28;20108;-87
2021/11/26 00:21:19;;;;;;;0.00;0.00;;;;;;;;;;5039154;28;20040;-87
2021/11/26 00:23:45;;;;;;;0.10;0.10;;;;;;;;;;5038142;28;20419;-88
2021/11/26 00:26:11;;;;;;;0.10;0.10;;;;;;;;;;5038196;28;20037;-88
2021/11/26 00:28:36;;;;;;;0.10;0.10;;;;;;;;;;5054663;28;20388;-87
2021/11/26 00:31:02;;;;;;;0.10;0.10;;;;;;;;;;5070878;28;20040;-87
2021/11/26 00:33:28;;;;;;;0.00;0.00;;;;;;;;;;5071118;28;20045;-88
2021/11/26 00:35:54;;;;;;;0.10;0.10;;;;;;;;;;5071024;28;20071;-87
2021/11/26 00:38:20;;;;;;;0.10;0.10;;;;;;;;;;5070966;28;20040;-88
2021/11/26 00:40:46;;;;;;;0.10;0.10;;;;;;;;;;5038142;28;20041;-88
2021/11/26 00:43:12;;;;;;;0.10;0.10;;;;;;;;;;5054529;28;20128;-86
2021/11/26 00:45:38;;;;;;;0.10;0.10;;;;;;;;;;5038181;28;20116;-87
2021/11/26 00:48:04;;;;;;;0.10;0.10;;;;;;;;;;5037820;28;20037;-87
2021/11/26 00:50:31;;;;;;;0.10;0.10;;;;;;;;;;5037678;28;20516;-87
2021/11/26 00:52:56;;;;;;;0.10;0.10;;;;;;;;;;5037710;28;20040;-87
2021/11/26 00:55:22;;;;;;;0.10;0.10;;;;;;;;;;5054219;28;20364;-87
2021/11/26 00:57:48;;;;;;;0.10;0.10;;;;;;;;;;5070995;28;20101;-86
2021/11/26 01:00:15;;;;;;;0.10;0.10;;;;;;;;;;5037572;28;20127;-87
2021/11/26 01:02:41;;;;;;;0.10;0.10;;;;;;;;;;5070758;28;20094;-87
2021/11/26 01:05:08;;;;;;;0.10;0.10;;;;;;;;;;5054282;28;20059;-87
2021/11/26 01:07:34;;;;;;;0.10;0.10;;;;;;;;;;5070842;28;20458;-87
2021/11/26 01:10:00;;;;;;;0.10;0.10;;;;;;;;;;5053794;28;20049;-87
2021/11/26 01:12:26;;;;;;;0.10;0.10;;;;;;;;;;5070635;28;20037;-87
2021/11/26 01:14:52;;;;;;;0.10;0.10;;;;;;;;;;5037383;28;20040;-87
2021/11/26 01:17:18;;;;;;;0.00;0.00;;;;;;;;;;5070045;28;20426;-87
2021/11/26 01:19:47;;;;;;;0.08;0.08;;;;;;;;;;5037501;28;20037;-87
2021/11/26 01:22:13;;;;;;;0.10;0.10;;;;;;;;;;5070654;28;20044;-87
2021/11/26 01:24:39;;;;;;;0.10;0.10;;;;;;;;;;5053919;28;20036;-87
2021/11/26 01:27:07;;;;;;;0.10;0.10;;;;;;;;;;5070347;28;20043;-87
2021/11/26 01:29:33;;;;;;;0.10;0.10;;;;;;;;;;5037304;28;20528;-87
2021/11/26 01:31:59;;;;;;;0.10;0.10;;;;;;;;;;5053740;28;20044;-87
2021/11/26 01:34:25;;;;;;;0.10;0.10;;;;;;;;;;5053710;28;20037;-87
2021/11/26 01:36:51;;;;;;;0.10;0.10;;;;;;;;;;5070328;28;20040;-87
2021/11/26 01:39:17;;;;;;;0.10;0.10;;;;;;;;;;5053768;28;20037;-87
2021/11/26 01:41:43;;;;;;;0.10;0.10;;;;;;;;;;5053736;28;20106;-87
2021/11/26 01:44:10;;;;;;;0.00;0.00;;;;;;;;;;5053578;28;20113;-87
2021/11/26 01:46:43;;;;;;;0.10;0.10;;;;;;;;;;5053556;28;20068;-87
2021/11/26 01:49:09;;;;;;;0.10;0.10;;;;;;;;;;5070262;28;20068;-87
2021/11/26 01:51:35;;;;;;;0.00;0.00;;;;;;;;;;5036989;28;20036;-87
2021/11/26 01:54:01;;;;;;;0.10;0.10;;;;;;;;;;5070178;28;20105;-87
2021/11/26 01:56:27;;;;;;;0.10;0.10;;;;;;;;;;5036932;28;20425;-87
2021/11/26 01:58:53;;;;;;;0.10;0.10;;;;;;;;;;5053451;28;20044;-87
2021/11/26 02:01:19;;;;;;;0.10;0.10;;;;;;;;;;5070366;28;20089;-86
2021/11/26 02:03:45;;;;;;;0.10;0.10;;;;;;;;;;5037137;28;20044;-87
2021/11/26 02:06:11;;;;;;;0.10;0.10;;;;;;;;;;5053422;28;20044;-88
2021/11/26 02:08:37;;;;;;;0.10;0.10;;;;;;;;;;5053673;28;20044;-88
2021/11/26 02:11:03;;;;;;;0.10;0.10;;;;;;;;;;5036709;28;20159;-87
2021/11/26 02:13:29;;;;;;;0.10;0.10;;;;;;;;;;5053375;28;20150;-88
2021/11/26 02:15:55;;;;;;;0.10;0.10;;;;;;;;;;5036739;28;20510;-88
2021/11/26 02:18:21;;;;;;;0.10;0.10;;;;;;;;;;5069983;28;20037;-87
2021/11/26 02:20:47;;;;;;;0.10;0.10;;;;;;;;;;5053787;28;20048;-86
2021/11/26 02:23:13;;;;;;;0.10;0.10;;;;;;;;;;5036710;28;20490;-87
2021/11/26 02:25:38;;;;;;;0.10;0.10;;;;;;;;;;5069978;28;20044;-87
2021/11/26 02:28:05;;;;;;;0.10;0.10;;;;;;;;;;5069622;28;20054;-87
2021/11/26 02:30:31;;;;;;;0.10;0.10;;;;;;;;;;5055885;28;20185;-86
2021/11/26 02:33:07;;;;;;;0.10;0.10;;;;;;;;;;5057095;28;20425;-86
2021/11/26 02:35:33;;;;;;;0.10;0.10;;;;;;;;;;5056777;28;20495;-87
2021/11/26 02:37:59;;;;;;;0.00;0.00;;;;;;;;;;5056749;28;20044;-87
2021/11/26 02:40:26;;;;;;;0.10;0.10;;;;;;;;;;5056613;28;20037;-87
2021/11/26 02:42:54;;;;;;;0.10;0.10;;;;;;;;;;5073351;28;20041;-87
2021/11/26 02:45:19;;;;;;;0.10;0.10;;;;;;;;;;5073454;28;20144;-87
2021/11/26 02:47:47;;;;;;;0.10;0.10;;;;;;;;;;5056547;28;20051;-87
2021/11/26 02:50:13;;;;;;;0.10;0.10;;;;;;;;;;5056669;28;20052;-87
2021/11/26 02:52:39;;;;;;;0.10;0.10;;;;;;;;;;5039839;28;20395;-87
2021/11/26 02:55:06;;;;;;;0.10;0.10;;;;;;;;;;5073052;28;20040;-87
2021/11/26 02:57:32;;;;;;;0.10;0.10;;;;;;;;;;5056736;28;20507;-87
2021/11/26 02:59:58;;;;;;;0.10;0.10;;;;;;;;;;5073038;28;20041;-87
2021/11/26 03:02:24;;;;;;;0.00;0.00;;;;;;;;;;5056527;28;20059;-88
2021/11/26 03:04:50;;;;;;;0.10;0.10;;;;;;;;;;5039799;28;20372;-87
2021/11/26 03:07:16;;;;;;;0.10;0.10;;;;;;;;;;5056168;28;20047;-87
2021/11/26 03:09:41;;;;;;;0.10;0.10;;;;;;;;;;5039389;28;20048;-86
2021/11/26 03:12:08;;;;;;;0.10;0.10;;;;;;;;;;5039465;28;20049;-87
2021/11/26 03:14:34;;;;;;;0.10;0.10;;;;;;;;;;5056122;28;20044;-87
2021/11/26 03:17:00;;;;;;;0.10;0.10;;;;;;;;;;5072556;28;20521;-87
2021/11/26 03:19:26;;;;;;;0.10;0.10;;;;;;;;;;5072731;28;20040;-87
2021/11/26 03:21:52;;;;;;;0.10;0.10;;;;;;;;;;5056010;28;20484;-88
2021/11/26 03:24:18;;;;;;;0.10;0.10;;;;;;;;;;5055919;28;20041;-88
2021/11/26 03:26:44;;;;;;;0.10;0.10;;;;;;;;;;5039061;28;20513;-87
2021/11/26 03:29:10;;;;;;;0.10;0.10;;;;;;;;;;5072587;28;20090;-87
2021/11/26 03:31:36;;;;;;;0.10;0.10;;;;;;;;;;5039256;28;20033;-89
2021/11/26 03:34:02;;;;;;;0.10;0.10;;;;;;;;;;5039298;28;20036;-87
2021/11/26 03:36:28;;;;;;;0.10;0.10;;;;;;;;;;5055644;28;20040;-87
2021/11/26 03:38:54;;;;;;;0.10;0.10;;;;;;;;;;5072330;28;20044;-87
2021/11/26 03:41:20;;;;;;;0.10;0.10;;;;;;;;;;5055409;28;20044;-87
2021/11/26 03:43:46;;;;;;;0.10;0.10;;;;;;;;;;5039041;28;20094;-87
2021/11/26 03:46:12;;;;;;;0.10;0.10;;;;;;;;;;5072209;28;20130;-87
2021/11/26 03:48:40;;;;;;;0.10;0.10;;;;;;;;;;5055923;28;20102;-87
2021/11/26 03:51:06;;;;;;;0.10;0.10;;;;;;;;;;5071905;28;20028;-87
2021/11/26 03:53:32;;;;;;;0.10;0.10;;;;;;;;;;5038614;28;20055;-86
2021/11/26 03:55:58;;;;;;;0.10;0.10;;;;;;;;;;5055668;28;20079;-86
2021/11/26 03:58:24;;;;;;;0.10;0.10;;;;;;;;;;5038688;28;20064;-87
2021/11/26 04:00:50;;;;;;;0.10;0.10;;;;;;;;;;5071874;28;20440;-87
2021/11/26 04:03:16;;;;;;;0.10;0.10;;;;;;;;;;5055578;28;20044;-87
2021/11/26 04:05:42;;;;;;;0.00;0.00;;;;;;;;;;5038836;28;20127;-88
2021/11/26 04:08:08;;;;;;;0.10;0.10;;;;;;;;;;5054961;28;20045;-87
2021/11/26 04:10:35;;;;;;;0.10;0.10;;;;;;;;;;5071542;28;20061;-87
2021/11/26 04:13:01;;;;;;;0.10;0.10;;;;;;;;;;5038504;28;20538;-87
2021/11/26 04:15:27;;;;;;;0.10;0.10;;;;;;;;;;5038388;28;20040;-86
2021/11/26 04:17:55;;;;;;;0.10;0.10;;;;;;;;;;5054992;28;20040;-87
2021/11/26 04:20:21;;;;;;;0.10;0.10;;;;;;;;;;5088296;28;20050;-87
2021/11/26 04:22:47;;;;;;;0.10;0.10;;;;;;;;;;5055125;28;20139;-87
2021/11/26 04:25:14;;;;;;;0.08;0.08;;;;;;;;;;5054679;28;20483;-87
2021/11/26 04:27:42;;;;;;;0.10;0.10;;;;;;;;;;5054867;28;20205;-87
2021/11/26 04:30:09;;;;;;;0.10;0.10;;;;;;;;;;5054992;28;20504;-87
2021/11/26 04:32:35;;;;;;;0.10;0.10;;;;;;;;;;5071275;28;20037;-87
2021/11/26 04:35:01;;;;;;;0.10;0.10;;;;;;;;;;5037880;28;20041;-87
2021/11/26 04:37:27;;;;;;;0.10;0.10;;;;;;;;;;5054645;28;20037;-87
2021/11/26 04:39:53;;;;;;;0.10;0.10;;;;;;;;;;5038180;28;20054;-88
2021/11/26 04:42:19;;;;;;;0.10;0.10;;;;;;;;;;5054466;28;20082;-87
2021/11/26 04:44:45;;;;;;;0.10;0.10;;;;;;;;;;5087765;28;20043;-87
2021/11/26 04:47:11;;;;;;;0.10;0.10;;;;;;;;;;5037642;28;20059;-87
2021/11/26 04:49:37;;;;;;;0.10;0.10;;;;;;;;;;5070737;28;20123;-86
2021/11/26 04:52:03;;;;;;;0.10;0.10;;;;;;;;;;5053527;28;20044;-86
2021/11/26 04:54:29;;;;;;;0.10;0.10;;;;;;;;;;5054584;28;20227;-86
2021/11/26 04:56:56;;;;;;;0.10;0.10;;;;;;;;;;5087479;28;20041;-87
2021/11/26 04:59:22;;;;;;;0.10;0.10;;;;;;;;;;5070218;28;20392;-87
2021/11/26 05:01:48;;;;;;;0.10;0.10;;;;;;;;;;5054110;28;20047;-87
2021/11/26 05:04:14;;;;;;;0.10;0.10;;;;;;;;;;5053917;28;20079;-87
2021/11/26 05:06:40;;;;;;;0.10;0.10;;;;;;;;;;5054005;28;20041;-87
2021/11/26 05:09:07;;;;;;;0.10;0.10;;;;;;;;;;5087732;28;20131;-87
2021/11/26 05:11:34;;;;;;;0.10;0.10;;;;;;;;;;5037416;28;20364;-88
2021/11/26 05:14:04;;;;;;;0.10;0.10;;;;;;;;;;5037972;28;20051;-87
2021/11/26 05:16:30;;;;;;;0.10;0.10;;;;;;;;;;5054262;28;20046;-87
2021/11/26 05:18:56;;;;;;;0.10;0.10;;;;;;;;;;5053971;28;20040;-87
2021/11/26 05:21:22;;;;;;;0.10;0.10;;;;;;;;;;5037158;28;20048;-86
2021/11/26 05:23:48;;;;;;;0.10;0.10;;;;;;;;;;5053899;28;20044;-86
2021/11/26 05:26:14;;;;;;;0.10;0.10;;;;;;;;;;5070740;28;20040;-87
2021/11/26 05:28:40;;;;;;;0.10;0.10;;;;;;;;;;5054040;28;20051;-87
2021/11/26 05:31:06;;;;;;;0.10;0.10;;;;;;;;;;5053641;28;20071;-87
2021/11/26 05:33:32;;;;;;;0.10;0.10;;;;;;;;;;5037384;28;20051;-87
2021/11/26 05:35:58;;;;;;;0.10;0.10;;;;;;;;;;5053800;28;20404;-88
2021/11/26 05:38:24;;;;;;;0.10;0.10;;;;;;;;;;5037236;28;20032;-87
2021/11/26 05:40:50;;;;;;;0.10;0.10;;;;;;;;;;5053651;28;20040;-89
2021/11/26 05:43:16;;;;;;;0.00;0.00;;;;;;;;;;5037065;28;20044;-88
2021/11/26 05:45:42;;;;;;;0.10;0.10;;;;;;;;;;5054102;28;20123;-89
2021/11/26 05:48:08;;;;;;;0.10;0.10;;;;;;;;;;5037007;28;20040;-87
2021/11/26 05:50:34;;;;;;;0.00;0.00;;;;;;;;;;5053640;28;20385;-88
2021/11/26 05:53:00;;;;;;;0.00;0.00;;;;;;;;;;5053900;28;20067;-88
2021/11/26 05:55:27;;;;;;;0.10;0.10;;;;;;;;;;5053836;28;20062;-88
2021/11/26 05:57:53;;;;;;;0.10;0.10;;;;;;;;;;5053582;28;20040;-88
2021/11/26 06:00:19;;;;;;;0.08;0.08;;;;;;;;;;5053871;28;20098;-88
2021/11/26 06:02:45;;;;;;;0.10;0.10;;;;;;;;;;5053519;28;20040;-88
2021/11/26 06:05:11;;;;;;;0.05;0.05;;;;;;;;;;5041042;28;20055;-89
2021/11/26 06:07:37;;;;;;;0.10;0.10;;;;;;;;;;5057343;28;20106;-88
2021/11/26 06:10:05;;;;;;;0.10;0.10;;;;;;;;;;5057056;28;20502;-87
2021/11/26 06:12:31;;;;;;;0.10;0.10;;;;;;;;;;5041049;28;20044;-88
2021/11/26 06:14:57;;;;;;;0.10;0.10;;;;;;;;;;5057242;28;20377;-88
2021/11/26 06:17:23;;;;;;;0.10;0.10;;;;;;;;;;5057304;28;20051;-88
2021/11/26 06:19:49;;;;;;;0.10;0.10;;;;;;;;;;5040935;28;20029;-88
2021/11/26 06:22:15;;;;;;;0.10;0.10;;;;;;;;;;5057114;28;20036;-88
2021/11/26 06:24:41;;;;;;;0.10;0.10;;;;;;;;;;5057210;28;20492;-88
2021/11/26 06:27:07;;;;;;;0.10;0.10;;;;;;;;;;5073565;28;20086;-88
2021/11/26 06:29:33;;;;;;;0.10;0.10;;;;;;;;;;5040512;28;20037;-88
2021/11/26 06:31:59;;;;;;;0.00;0.00;;;;;;;;;;5057073;28;20040;-88
2021/11/26 06:34:24;;;;;;;0.10;0.10;;;;;;;;;;5057035;28;20112;-87
2021/11/26 06:36:51;;;;;;;0.10;0.10;;;;;;;;;;5073288;28;20037;-87
2021/11/26 06:39:16;;;;;;;0.10;0.10;;;;;;;;;;5056994;28;20036;-87
2021/11/26 06:41:42;;;;;;;0.10;0.10;;;;;;;;;;5073287;28;20178;-87
2021/11/26 06:44:09;;;;;;;0.10;0.10;;;;;;;;;;5056825;28;20044;-87
2021/11/26 06:46:35;;;;;;;0.10;0.10;;;;;;;;;;5073242;28;20048;-87
2021/11/26 06:49:01;;;;;;;0.10;0.10;;;;;;;;;;5056773;28;20400;-88
2021/11/26 06:51:28;;;;;;;0.10;0.10;;;;;;;;;;5073071;28;20122;-87
2021/11/26 06:53:57;;;;;;;0.10;0.10;;;;;;;;;;5039944;28;20039;-87
2021/11/26 06:56:23;;;;;;;0.10;0.10;;;;;;;;;;5040219;28;20079;-87
2021/11/26 06:58:49;;;;;;;0.10;0.10;;;;;;;;;;5056702;28;20037;-87
2021/11/26 07:01:15;;;;;;;0.08;0.08;;;;;;;;;;5073235;28;20037;-87
2021/11/26 07:03:41;;;;;;;0.10;0.10;;;;;;;;;;5073297;28;20128;-87
2021/11/26 07:06:07;;;;;;;0.10;0.10;;;;;;;;;;5056354;28;20396;-86
2021/11/26 07:08:33;;;;;;;0.10;0.10;;;;;;;;;;5039745;28;20036;-91
2021/11/26 07:10:58;;;;;;;0.10;0.10;;;;;;;;;;5056022;28;20056;-88
2021/11/26 07:13:24;;;;;;;0.10;0.10;;;;;;;;;;5056256;28;20553;-87
2021/11/26 07:15:50;;;;;;;0.10;0.10;;;;;;;;;;5072107;28;20466;-88
2021/11/26 07:18:16;;;;;;;0.10;0.10;;;;;;;;;;5056260;28;20399;-89
2021/11/26 07:20:42;;;;;;;0.10;0.10;;;;;;;;;;5039722;28;20032;-88
2021/11/26 07:23:08;;;;;;;0.10;0.10;;;;;;;;;;5056242;28;20510;-88
2021/11/26 07:25:34;;;;;;;0.03;0.03;;;;;;;;;;5056250;28;20069;-86
2021/11/26 07:28:00;;;;;;;0.15;0.15;;;;;;;;;;5055945;28;20120;-86
2021/11/26 07:30:26;;;;;;;0.10;0.10;;;;;;;;;;5055828;28;20036;-85
2021/11/26 07:32:52;;;;;;;0.10;0.10;;;;;;;;;;5072596;28;20036;-86
2021/11/26 07:35:18;;;;;;;0.10;0.10;;;;;;;;;;5055923;28;20565;-88
2021/11/26 07:37:44;;;;;;;0.10;0.10;;;;;;;;;;5072749;28;20080;-86
2021/11/26 07:40:11;;;;;;;0.10;0.10;;;;;;;;;;5055794;28;20090;-88
2021/11/26 07:42:38;;;;;;;0.10;0.10;;;;;;;;;;5039481;28;20047;-86
2021/11/26 07:45:04;;;;;;;0.10;0.10;;;;;;;;;;5072661;28;20159;-85
2021/11/26 07:47:30;;;;;;;0.10;0.10;;;;;;;;;;5055828;28;20080;-85
2021/11/26 07:49:56;;;;;;;0.10;0.10;;;;;;;;;;5072082;28;20078;-86
2021/11/26 07:52:22;;;;;;;0.00;0.00;;;;;;;;;;5055576;28;20509;-86
2021/11/26 07:54:48;;;;;;;0.10;0.10;;;;;;;;;;5038952;28;20041;-88
2021/11/26 07:57:14;;;;;;;0.10;0.10;;;;;;;;;;5055411;28;20036;-88
2021/11/26 07:59:40;;;;;;;0.10;0.10;;;;;;;;;;5055418;28;20178;-87
2021/11/26 08:02:06;;;;;;;0.10;0.10;;;;;;;;;;5039129;28;20079;-87
2021/11/26 08:04:32;;;;;;;0.10;0.10;;;;;;;;;;5038789;28;20040;-88
2021/11/26 08:06:58;;;;;;;0.10;0.10;;;;;;;;;;5040773;28;20093;-87
2021/11/26 08:09:24;;;;;;;0.10;0.10;;;;;;;;;;5055320;28;20488;-87
2021/11/26 08:11:50;;;;;;;0.10;0.10;;;;;;;;;;5038294;28;20056;-87
2021/11/26 08:14:16;;;;;;;0.10;0.10;;;;;;;;;;5055162;28;20046;-86
2021/11/26 08:16:42;;;;;;;0.10;0.10;;;;;;;;;;5054921;28;20472;-87
2021/11/26 08:19:08;;;;;;;0.10;0.10;;;;;;;;;;5038574;28;20127;-87
2021/11/26 08:21:34;;;;;;;0.10;0.10;;;;;;;;;;5054960;28;20059;-87
2021/11/26 08:24:01;;;;;;;0.10;0.10;;;;;;;;;;5038220;28;20044;-87
2021/11/26 08:26:27;;;;;;;0.10;0.10;;;;;;;;;;5054185;28;20083;-87
2021/11/26 08:28:53;;;;;;;0.10;0.10;;;;;;;;;;5070920;28;20049;-87
2021/11/26 08:31:19;;;;;;;0.10;0.10;;;;;;;;;;5038198;28;20062;-87
2021/11/26 08:33:45;;;;;;;0.10;0.10;;;;;;;;;;5054611;28;20040;-87
2021/11/26 08:36:11;;;;;;;0.03;0.03;;;;;;;;;;5054938;28;20510;-87
2021/11/26 08:38:37;;;;;;;0.10;0.10;;;;;;;;;;5054651;28;20452;-88
2021/11/26 08:41:03;;;;;;;0.05;0.05;;;;;;;;;;5071282;28;20048;-91
2021/11/26 08:43:29;;;;;;;0.10;0.10;;;;;;;;;;5038021;28;20085;-87
2021/11/26 08:45:55;;;;;;;0.10;0.10;;;;;;;;;;5054559;28;20036;-88
2021/11/26 08:48:23;;;;;;;0.10;0.10;;;;;;;;;;5054688;28;20044;-88
2021/11/26 08:50:49;;;;;;;0.10;0.10;;;;;;;;;;5037502;28;20044;-88
2021/11/26 08:53:16;;;;;;;0.10;0.10;;;;;;;;;;5053896;28;20132;-88
2021/11/26 08:55:47;;;;;;;0.10;0.10;;;;;;;;;;5037771;28;20134;-89
2021/11/26 08:58:14;;;;;;;0.10;0.10;;;;;;;;;;5037965;28;20123;-90
2021/11/26 09:00:40;;;;;;;0.10;0.10;;;;;;;;;;5054456;28;20522;-91
2021/11/26 09:03:06;;;;;;;0.10;0.10;;;;;;;;;;5037242;28;20082;-89
2021/11/26 09:05:32;;;;;;;0.10;0.10;;;;;;;;;;5053952;28;20364;-89
2021/11/26 09:08:02;;;;;;;0.10;0.10;;;;;;;;;;5036788;28;20036;-89
2021/11/26 09:10:36;;;;;;;0.10;0.10;;;;;;;;;;5054050;28;20057;-89
2021/11/26 09:13:03;;;;;;;0.10;0.10;;;;;;;;;;5037083;28;20078;-90
2021/11/26 09:15:29;;;;;;;0.10;0.10;;;;;;;;;;5070505;28;20036;-88
2021/11/26 09:17:55;;;;;;;0.10;0.10;;;;;;;;;;5053391;28;20449;-86
2021/11/26 09:20:21;;;;;;;0.10;0.10;;;;;;;;;;5070258;28;20047;-87
2021/11/26 09:22:49;;;;;;;0.10;0.10;;;;;;;;;;5070169;28;20053;-87
2021/11/26 09:25:16;;;;;;;0.10;0.10;;;;;;;;;;5053627;28;20083;-87
2021/11/26 09:27:42;;;;;;;0.10;0.10;;;;;;;;;;5053726;28;20079;-87
2021/11/26 09:30:08;;;;;;;0.10;0.10;;;;;;;;;;5069932;28;20048;-88
2021/11/26 09:32:34;;;;;;;0.10;0.10;;;;;;;;;;5053515;28;20036;-87
2021/11/26 09:35:00;;;;;;;0.05;0.05;;;;;;;;;;5053311;28;20427;-86
2021/11/26 09:37:26;;;;;;;0.10;0.10;;;;;;;;;;5070069;28;20040;-87
2021/11/26 09:39:53;;;;;;;0.10;0.10;;;;;;;;;;5040281;28;20567;-87
2021/11/26 09:42:19;;;;;;;0.10;0.10;;;;;;;;;;5074005;28;20123;-86
2021/11/26 09:44:45;;;;;;;0.10;0.10;;;;;;;;;;5074076;28;20106;-86
2021/11/26 09:47:11;;;;;;;0.10;0.10;;;;;;;;;;5074420;28;20052;-86
2021/11/26 09:49:37;;;;;;;0.10;0.10;;;;;;;;;;5074118;28;20037;-87
2021/11/26 09:52:03;;;;;;;0.13;0.13;;;;;;;;;;5057354;28;20048;-87
2021/11/26 09:54:36;;;;;;;0.10;0.10;;;;;;;;;;5057792;28;20415;-87
2021/11/26 09:57:02;;;;;;;0.10;0.10;;;;;;;;;;5060580;28;20076;-89
2021/11/26 09:59:28;;;;;;;0.10;0.10;;;;;;;;;;5078728;28;20036;-89
2021/11/26 10:01:54;;;;;;;0.10;0.10;;;;;;;;;;5080029;28;20044;-87
2021/11/26 10:04:20;;;;;;;0.10;0.10;;;;;;;;;;5051463;28;20041;-88
2021/11/26 10:06:46;;;;;;;0.10;0.10;;;;;;;;;;5093439;28;20048;-88
2021/11/26 10:09:13;;;;;;;1.65;0.32;;;;;;;;;;5089171;28;20051;-87
2021/11/26 10:11:44;;;;;;;0.05;0.05;;;;;;;;;;5076209;28;20040;-90
2021/11/26 10:14:13;;;;;;;0.10;0.10;;;;;;;;;;5043169;28;20115;-89
2021/11/26 10:16:46;;;;;;;0.10;0.10;;;;;;;;;;5076206;28;20086;-89
2021/11/26 10:19:12;;;;;;;0.00;0.00;;;;;;;;;;5059366;28;20085;-88
2021/11/26 10:21:38;;;;;;;0.10;0.10;;;;;;;;;;5092929;28;20040;-89
2021/11/26 10:24:09;;;;;;;0.10;0.10;;;;;;;;;;5092955;28;20043;-88
2021/11/26 10:26:39;;;;;;;0.20;0.20;;;;;;;;;;5059124;28;20129;-87
2021/11/26 10:29:05;;;;;;;0.10;0.10;;;;;;;;;;5092949;28;20079;-87
2021/11/26 10:31:33;;;;;;;0.10;0.10;;;;;;;;;;5042503;28;20044;-87
2021/11/26 10:34:03;;;;;;;0.10;0.10;;;;;;;;;;5092819;28;20097;-87
2021/11/26 10:36:29;;;;;;;0.10;0.10;;;;;;;;;;5059472;28;20037;-87
2021/11/26 10:38:55;;;;;;;0.10;0.10;;;;;;;;;;5042103;28;20043;-88
2021/11/26 10:41:30;;;;;;;0.10;0.10;;;;;;;;;;5059542;28;20036;-88
2021/11/26 10:44:06;;;;;;;0.10;0.10;;;;;;;;;;5043851;28;20579;-89
2021/11/26 10:47:21;;;;;;;0.10;0.10;;;;;;;;;;5055313;28;20123;-88
2021/11/26 10:49:40;;;;;;;0.10;0.10;;;;;;;;;;5061578;28;20048;-88
2021/11/26 10:52:16;;;;;;;0.03;0.03;;;;;;;;;;5044787;28;20041;-88
2021/11/26 11:00:01;;;;;;;0.10;0.10;;;;;;;;;;5037825;28;20318;-87
2021/11/26 11:02:27;;;;;;;0.10;0.10;;;;;;;;;;5052736;28;20041;-85
2021/11/26 11:04:54;;;;;;;0.10;0.10;;;;;;;;;;5069280;28;20044;-86
2021/11/26 11:07:19;;;;;;;0.10;0.10;;;;;;;;;;5036400;28;20111;-86
2021/11/26 11:09:47;;;;;;;0.10;0.10;;;;;;;;;;5038987;28;20498;-86
2021/11/26 11:12:13;;;;;;;0.10;0.10;;;;;;;;;;5072409;28;20072;-86
2021/11/26 11:14:39;;;;;;;0.10;0.10;;;;;;;;;;5072530;28;20037;-86
2021/11/26 11:17:05;;;;;;;0.10;0.10;;;;;;;;;;5072227;28;20479;-85
2021/11/26 11:19:31;;;;;;;0.10;0.10;;;;;;;;;;5089185;28;20083;-87
2021/11/26 11:21:57;;;;;;;0.20;0.20;;;;;;;;;;5106318;28;20086;-87
2021/11/26 11:24:24;;;;;;;0.10;0.10;;;;;;;;;;5089162;28;20041;-86
2021/11/26 11:26:50;;;;;;;0.10;0.10;;;;;;;;;;5106467;28;20072;-86
2021/11/26 11:29:16;;;;;;;0.52;0.40;;;;;;;;;;5089586;28;20036;-86
2021/11/26 11:31:42;;;;;;;0.10;0.10;;;;;;;;;;5088897;28;20048;-86
2021/11/26 11:34:09;;;;;;;0.10;0.10;;;;;;;;;;5089173;28;20044;-90
2021/11/26 11:36:36;;;;;;;0.13;0.13;;;;;;;;;;5072011;28;20119;-89
2021/11/26 11:39:03;;;;;;;0.10;0.10;;;;;;;;;;5088869;28;20032;-89
2021/11/26 11:41:29;;;;;;;14.65;0.52;;;;;;;;;;5071983;28;20102;-89
2021/11/26 11:43:55;;;;;;;0.10;0.10;;;;;;;;;;5071755;28;20040;-89
2021/11/26 11:46:21;;;;;;;0.10;0.10;;;;;;;;;;5071944;28;20421;-89
2021/11/26 11:48:48;;;;;;;0.10;0.10;;;;;;;;;;5054950;28;20131;-89
2021/11/26 11:51:21;;;;;;;0.10;0.10;;;;;;;;;;5071728;28;20045;-88
2021/11/26 11:53:47;;;;;;;0.10;0.10;;;;;;;;;;5072157;28;20093;-90
2021/11/26 11:56:14;;;;;;;0.10;0.10;;;;;;;;;;5072109;28;20040;-90
2021/11/26 11:58:48;;;;;;;0.10;0.10;;;;;;;;;;5071671;28;20058;-90
2021/11/26 12:01:27;;;;;;;0.10;0.10;;;;;;;;;;5088411;28;20135;-88
2021/11/26 12:03:54;;;;;;;0.10;0.10;;;;;;;;;;5071945;28;20055;-89
2021/11/26 12:06:20;;;;;;;0.10;0.10;;;;;;;;;;5071784;28;20105;-88
2021/11/26 12:08:46;;;;;;;0.30;0.30;;;;;;;;;;5071578;28;20048;-88
2021/11/26 12:11:22;;;;;;;0.10;0.10;;;;;;;;;;5087995;28;20272;-89
2021/11/26 12:13:48;;;;;;;0.40;0.40;;;;;;;;;;5071602;28;20036;-88
2021/11/26 12:16:14;;;;;;;0.10;0.10;;;;;;;;;;5071637;28;20123;-89
2021/11/26 12:18:42;;;;;;;0.10;0.10;;;;;;;;;;5088206;28;20045;-89
2021/11/26 12:21:08;;;;;;;0.10;0.10;;;;;;;;;;5088021;28;20080;-88
2021/11/26 12:23:50;;;;;;;0.20;0.17;;;;;;;;;;5088033;28;20098;-88
2021/11/26 12:26:20;;;;;;;0.10;0.10;;;;;;;;;;5085809;28;20045;-88
2021/11/26 12:28:51;;;;;;;0.10;0.10;;;;;;;;;;5087571;28;20109;-87
2021/11/26 12:31:20;;;;;;;0.10;0.10;;;;;;;;;;5070527;28;20488;-88
2021/11/26 12:33:49;;;;;;;0.10;0.10;;;;;;;;;;5088148;28;20048;-89
2021/11/26 12:36:15;;;;;;;0.10;0.10;;;;;;;;;;5087718;28;20068;-91
2021/11/26 12:38:46;;;;;;;0.10;0.10;;;;;;;;;;5087775;28;20081;-89
2021/11/26 12:41:12;;;;;;;0.10;0.10;;;;;;;;;;5088715;28;20044;-90
2021/11/26 12:43:44;;;;;;;0.10;0.10;;;;;;;;;;5088791;28;20040;-96
2021/11/26 12:46:20;;;;;;;0.10;0.10;;;;;;;;;;5071314;28;20369;-88
2021/11/26 12:51:49;;;;;;;0.28;0.28;;;;;;;;;;5047049;28;20137;-89
2021/11/26 12:54:41;;;;;;;0.17;0.17;;;;;;;;;;5078769;28;20525;-89
2021/11/26 12:57:11;;;;;;;0.10;0.10;;;;;;;;;;5071122;28;20048;-89
2021/11/26 12:59:39;;;;;;;0.10;0.10;;;;;;;;;;5058252;28;20063;-92
2021/11/26 13:02:05;;;;;;;0.10;0.10;;;;;;;;;;5057533;28;20127;-90
2021/11/26 13:04:31;;;;;;;0.10;0.10;;;;;;;;;;5057346;28;20044;-91
2021/11/26 13:07:04;;;;;;;0.10;0.10;;;;;;;;;;5057710;28;20048;-90
2021/11/26 13:09:40;;;;;;;0.15;0.15;;;;;;;;;;5057103;28;20065;-90
2021/11/26 13:12:07;;;;;;;0.10;0.10;;;;;;;;;;5057242;28;20052;-90
2021/11/26 13:14:45;;;;;;;0.10;0.10;;;;;;;;;;5057039;28;20491;-90
2021/11/26 13:17:11;;;;;;;0.10;0.10;;;;;;;;;;5057067;28;20036;-88
2021/11/26 13:19:37;;;;;;;0.10;0.10;;;;;;;;;;5073870;28;20032;-90
2021/11/26 13:22:03;;;;;;;1.10;1.10;;;;;;;;;;5057270;28;20458;-90
2021/11/26 13:24:29;;;;;;;0.10;0.10;;;;;;;;;;5057046;28;20043;-90
2021/11/26 13:27:02;;;;;;;0.10;0.10;;;;;;;;;;5057133;28;20097;-91
2021/11/26 13:29:30;;;;;;;0.10;0.10;;;;;;;;;;5057481;28;20036;-89
2021/11/26 13:31:56;;;;;;;0.10;0.10;;;;;;;;;;5057544;28;20041;-90
2021/11/26 13:34:22;;;;;;;0.10;0.10;;;;;;;;;;5074074;28;20044;-90
2021/11/26 13:36:48;;;;;;;0.10;0.10;;;;;;;;;;5056984;28;20036;-88
2021/11/26 13:39:17;;;;;;;0.10;0.10;;;;;;;;;;5057290;28;20050;-88
2021/11/26 13:41:43;;;;;;;0.10;0.10;;;;;;;;;;5057370;28;20055;-87
2021/11/26 13:44:10;;;;;;;0.55;0.43;;;;;;;;;;5073510;28;20044;-88
2021/11/26 13:46:39;;;;;;;0.10;0.10;;;;;;;;;;5057004;28;20094;-88
2021/11/26 13:49:09;;;;;;;0.10;0.10;;;;;;;;;;5057160;28;20105;-88
2021/11/26 13:51:36;;;;;;;0.10;0.10;;;;;;;;;;5056915;28;20123;-88
2021/11/26 13:54:06;;;;;;;0.10;0.10;;;;;;;;;;5056957;28;20040;-90
2021/11/26 13:56:33;;;;;;;0.17;0.17;;;;;;;;;;5057645;28;20048;-91
2021/11/26 13:59:30;;;;;;;0.10;0.10;;;;;;;;;;5057807;28;20033;-89
2021/11/26 14:02:06;;;;;;;0.10;0.10;;;;;;;;;;5073775;28;20059;-89
2021/11/26 14:04:35;;;;;;;0.10;0.10;;;;;;;;;;5057176;28;20051;-89
2021/11/26 14:07:11;;;;;;;0.10;0.10;;;;;;;;;;5056974;28;20090;-89
2021/11/26 14:09:40;;;;;;;0.10;0.10;;;;;;;;;;5058105;28;20089;-89
2021/11/26 14:12:18;;;;;;;0.10;0.10;;;;;;;;;;5056979;28;20111;-90
2021/11/26 14:14:45;;;;;;;0.10;0.10;;;;;;;;;;5074111;28;20036;-90
2021/11/26 14:17:13;;;;;;;0.30;0.30;;;;;;;;;;5056889;28;20122;-90
2021/11/26 14:19:40;;;;;;;0.10;0.10;;;;;;;;;;5060514;28;20039;-92
2021/11/26 14:22:07;;;;;;;0.10;0.10;;;;;;;;;;5079396;28;20044;-90
2021/11/26 14:24:43;;;;;;;0.10;0.10;;;;;;;;;;5077940;28;20064;-90
2021/11/26 14:27:10;;;;;;;0.10;0.10;;;;;;;;;;5078913;28;20040;-90
2021/11/26 14:29:49;;;;;;;0.10;0.10;;;;;;;;;;5061562;28;20047;-89
2021/11/26 14:32:15;;;;;;;0.10;0.10;;;;;;;;;;5060430;28;20040;-90
2021/11/26 14:34:43;;;;;;;0.35;0.35;;;;;;;;;;5059981;28;20386;-92
2021/11/26 14:37:09;;;;;;;0.10;0.10;;;;;;;;;;5060224;28;20119;-91
2021/11/26 14:39:35;;;;;;;0.10;0.10;;;;;;;;;;5060100;28;20522;-92
2021/11/26 14:42:02;;;;;;;0.30;0.30;;;;;;;;;;5059451;28;20043;-91
2021/11/26 14:44:37;;;;;;;0.10;0.10;;;;;;;;;;5059494;28;20123;-90
2021/11/26 14:47:03;;;;;;;0.30;0.15;;;;;;;;;;5059682;28;20637;-88
2021/11/26 14:49:35;;;;;;;0.10;0.10;;;;;;;;;;5076415;28;20078;-86
2021/11/26 14:52:02;;;;;;;0.30;0.30;;;;;;;;;;5076162;28;20043;-90